Terminal Aerodrome Forecast
Issued by NWS Wilmington, OH

Current Version | Previous Version | Graphics & Text | Print | Product List | Glossary On
Versions: 1 2 3 4 5 6 7 8 9 10 11 12 13 14 15 16
000
FTUS41 KILN 272300
TAFCMH
TAF
KCMH 272330Z 2800/2824 32011KT P6SM OVC050
     FM280400 32009KT P6SM BKN035
     FM280800 34010KT P6SM SCT022
     FM281800 33012KT P6SM FEW040=

USA.gov is the U.S. government's official web portal to all federal, state and local government web resources and services.